Time;durP1;ratioP1;P1;durP2;ratioP2;P2;SDS_P1;SDS_P2;PMS_P1;PMS_P2;Temp;Humidity;BMP_temperature;BMP_pressure;BME280_temperature;BME280_humidity;BME280_pressure;Samples;Min_cycle;Max_cycle;Signal;HPM_P1;HPM_P2
2023/08/21 00:00:00;;;;;;;5.75;4.57;;;;;21.90;94850.00;;;;7404845;19;20603;-77
2023/08/21 00:02:35;;;;;;;8.00;4.72;;;;;21.90;94852.00;;;;7402658;19;20636;-77
2023/08/21 00:05:04;;;;;;;10.80;5.05;;;;;21.90;94845.00;;;;7404675;19;20251;-77
2023/08/21 00:07:38;;;;;;;5.88;5.30;;;;;21.90;94852.00;;;;7404005;19;20531;-77
2023/08/21 00:10:14;;;;;;;6.60;5.00;;;;;21.90;94851.00;;;;7403446;19;20164;-77
2023/08/21 00:12:48;;;;;;;6.60;5.00;;;;;21.80;94846.00;;;;7403730;19;20512;-77
2023/08/21 00:15:23;;;;;;;7.35;4.57;;;;;21.80;94845.00;;;;7401715;19;20622;-77
2023/08/21 00:17:57;;;;;;;8.38;5.25;;;;;21.90;94847.00;;;;7404950;19;20148;-76
2023/08/21 00:20:25;;;;;;;5.90;4.72;;;;;21.90;94849.00;;;;7402949;19;20133;-77
2023/08/21 00:22:59;;;;;;;7.35;4.82;;;;;21.90;94842.00;;;;7404570;19;20134;-77
2023/08/21 00:25:34;;;;;;;8.18;5.40;;;;;22.00;94847.00;;;;7405505;19;20560;-79
2023/08/21 00:28:08;;;;;;;8.02;4.75;;;;;21.80;94841.00;;;;7405500;19;20129;-78
2023/08/21 00:30:37;;;;;;;5.97;4.63;;;;;21.70;94835.00;;;;7404035;19;20219;-80
2023/08/21 00:33:11;;;;;;;8.68;5.28;;;;;21.60;94836.00;;;;7406383;19;20595;-78
2023/08/21 00:35:45;;;;;;;6.25;4.90;;;;;21.60;94842.00;;;;7395670;19;20192;-78
2023/08/21 00:38:19;;;;;;;6.95;5.45;;;;;21.50;94833.00;;;;7399725;19;20160;-77
2023/08/21 00:40:47;;;;;;;7.18;5.18;;;;;21.60;94840.00;;;;7404112;19;20125;-77
2023/08/21 00:43:21;;;;;;;6.13;4.55;;;;;21.40;94821.00;;;;7405763;19;20157;-77
2023/08/21 00:45:55;;;;;;;8.60;5.50;;;;;21.40;94834.00;;;;7402044;19;20139;-78
2023/08/21 00:48:30;;;;;;;6.93;4.90;;;;;21.30;94828.00;;;;7403666;19;20216;-78
2023/08/21 00:51:06;;;;;;;7.35;5.00;;;;;21.40;94831.00;;;;7403631;19;20158;-78
2023/08/21 00:53:35;;;;;;;6.60;5.50;;;;;21.30;94828.00;;;;7405096;19;20491;-78
2023/08/21 00:56:11;;;;;;;8.23;4.35;;;;;21.30;94829.00;;;;7404227;19;20129;-77
2023/08/21 00:58:46;;;;;;;11.30;5.70;;;;;21.30;94829.00;;;;7403179;19;20132;-78
2023/08/21 01:01:25;;;;;;;8.07;4.78;;;;;21.30;94827.00;;;;7399903;19;20140;-77
2023/08/21 01:04:22;;;;;;;7.35;4.63;;;;;21.20;94830.00;;;;7390796;19;20144;-78
2023/08/21 01:06:57;;;;;;;6.72;5.00;;;;;21.50;94826.00;;;;7397056;19;20148;-80
2023/08/21 01:09:36;;;;;;;8.02;5.38;;;;;21.40;94818.00;;;;7397335;19;20153;-81
2023/08/21 01:12:37;;;;;;;7.45;5.28;;;;;21.40;94825.00;;;;7395102;19;20148;-81
2023/08/21 01:15:09;;;;;;;6.32;5.72;;;;;21.30;94824.00;;;;7395441;19;20137;-78
2023/08/21 01:17:45;;;;;;;8.50;5.32;;;;;21.30;94821.00;;;;7397747;19;20590;-79
2023/08/21 01:20:14;;;;;;;8.18;5.35;;;;;21.20;94820.00;;;;7397997;19;20149;-79
2023/08/21 01:22:50;;;;;;;10.90;5.65;;;;;21.40;94822.00;;;;7398604;19;20139;-80
2023/08/21 01:25:17;;;;;;;6.47;5.20;;;;;21.30;94826.00;;;;7396217;19;20619;-78
2023/08/21 01:27:53;;;;;;;8.65;5.10;;;;;21.30;94826.00;;;;7397391;19;20156;-81
2023/08/21 01:30:21;;;;;;;7.22;5.10;;;;;21.20;94825.00;;;;7395880;19;20148;-81
2023/08/21 01:33:13;;;;;;;7.53;4.85;;;;;21.10;94836.00;;;;7396101;19;20494;-79
2023/08/21 01:35:41;;;;;;;5.80;5.10;;;;;21.00;94834.00;;;;7396318;19;20136;-81
2023/08/21 01:38:16;;;;;;;11.02;5.30;;;;;21.10;94829.00;;;;7396717;19;20156;-80
2023/08/21 01:40:46;;;;;;;7.07;5.00;;;;;21.20;94828.00;;;;7395128;19;20500;-79
2023/08/21 01:43:20;;;;;;;8.60;5.35;;;;;21.00;94832.00;;;;7397397;19;20485;-80
2023/08/21 01:45:48;;;;;;;9.55;4.97;;;;;20.90;94824.00;;;;7394928;19;20149;-81
2023/08/21 01:48:22;;;;;;;8.40;5.38;;;;;20.80;94829.00;;;;7396406;19;20143;-80
2023/08/21 01:50:56;;;;;;;7.75;5.32;;;;;20.80;94828.00;;;;7396814;19;20153;-78
2023/08/21 01:53:30;;;;;;;8.35;5.32;;;;;20.90;94824.00;;;;7395231;19;20133;-82
2023/08/21 01:55:58;;;;;;;9.15;5.70;;;;;21.00;94822.00;;;;7390012;19;20170;-79
2023/08/21 01:58:32;;;;;;;5.75;4.78;;;;;21.00;94821.00;;;;7398233;19;20135;-81
2023/08/21 02:01:06;;;;;;;7.93;5.72;;;;;20.90;94822.00;;;;7394319;19;20156;-81
2023/08/21 02:03:47;;;;;;;8.35;5.50;;;;;20.80;94830.00;;;;7394157;19;20193;-81
2023/08/21 02:06:14;;;;;;;7.60;5.63;;;;;20.70;94834.00;;;;7396174;19;20619;-79
2023/08/21 02:08:49;;;;;;;6.80;5.43;;;;;20.60;94828.00;;;;7395480;19;20148;-80
2023/08/21 02:11:24;;;;;;;9.40;5.55;;;;;20.50;94829.00;;;;7395832;19;20169;-79
2023/08/21 02:13:51;;;;;;;8.88;5.70;;;;;20.60;94829.00;;;;7397047;19;20129;-79
2023/08/21 02:16:25;;;;;;;6.55;5.30;;;;;20.60;94822.00;;;;7394032;19;20587;-78
2023/08/21 02:18:59;;;;;;;6.05;5.30;;;;;20.70;94831.00;;;;7389931;19;20224;-78
2023/08/21 02:21:27;;;;;;;7.88;6.00;;;;;20.50;94826.00;;;;7394728;19;20145;-79
2023/08/21 02:24:02;;;;;;;9.50;5.68;;;;;20.50;94827.00;;;;7393760;19;20204;-79
2023/08/21 02:26:29;;;;;;;6.53;5.53;;;;;20.40;94832.00;;;;7401185;19;20156;-80
2023/08/21 02:28:57;;;;;;;7.43;5.22;;;;;20.50;94829.00;;;;7402980;19;20200;-79
2023/08/21 02:31:31;;;;;;;8.32;6.25;;;;;20.50;94829.00;;;;7402344;19;20629;-79
2023/08/21 02:34:06;;;;;;;7.50;5.70;;;;;20.60;94817.00;;;;7401294;19;20152;-78
2023/08/21 02:36:40;;;;;;;6.68;5.72;;;;;20.40;94829.00;;;;7401882;19;20136;-78
2023/08/21 02:39:09;;;;;;;9.82;5.88;;;;;20.30;94821.00;;;;7401312;19;20148;-77
2023/08/21 02:41:43;;;;;;;7.03;5.55;;;;;20.40;94823.00;;;;7402581;19;20136;-77
2023/08/21 02:44:11;;;;;;;7.13;5.78;;;;;20.40;94826.00;;;;7401312;19;20145;-79
2023/08/21 02:46:45;;;;;;;10.07;5.25;;;;;20.50;94817.00;;;;7399894;19;20145;-78
2023/08/21 02:49:19;;;;;;;8.68;5.63;;;;;20.70;94829.00;;;;7402103;19;20142;-77
2023/08/21 02:51:53;;;;;;;8.32;5.43;;;;;20.70;94823.00;;;;7401000;19;20140;-78
2023/08/21 02:54:21;;;;;;;8.30;5.97;;;;;20.80;94820.00;;;;7400062;19;20152;-78
2023/08/21 02:56:55;;;;;;;8.85;6.32;;;;;20.70;94824.00;;;;7398188;19;20152;-77
2023/08/21 02:59:29;;;;;;;8.32;6.32;;;;;20.70;94822.00;;;;7401618;19;20164;-79
2023/08/21 03:02:12;;;;;;;6.90;5.72;;;;;20.70;94824.00;;;;7398172;19;20641;-78
2023/08/21 03:04:46;;;;;;;8.30;5.88;;;;;20.80;94821.00;;;;7400571;19;20137;-77
2023/08/21 03:07:20;;;;;;;9.73;5.93;;;;;20.70;94816.00;;;;7401368;19;20155;-78
2023/08/21 03:09:48;;;;;;;8.45;5.95;;;;;20.70;94818.00;;;;7400552;19;20133;-79
2023/08/21 03:12:22;;;;;;;9.90;6.25;;;;;20.70;94818.00;;;;7399514;19;20619;-78
2023/08/21 03:14:56;;;;;;;8.25;6.38;;;;;20.60;94819.00;;;;7400784;19;20617;-80
2023/08/21 03:17:25;;;;;;;11.32;6.40;;;;;20.50;94825.00;;;;7396914;19;20607;-78
2023/08/21 03:19:59;;;;;;;11.18;6.30;;;;;20.30;94829.00;;;;7400849;19;20142;-78
2023/08/21 03:22:27;;;;;;;6.97;6.15;;;;;20.30;94823.00;;;;7402336;19;20121;-77
2023/08/21 03:25:02;;;;;;;8.20;6.38;;;;;20.30;94831.00;;;;7400418;19;20474;-81
2023/08/21 03:27:30;;;;;;;9.75;6.03;;;;;20.30;94823.00;;;;7400451;19;20145;-80
2023/08/21 03:30:06;;;;;;;10.68;6.88;;;;;20.30;94824.00;;;;7400858;19;20165;-80
2023/08/21 03:32:33;;;;;;;7.18;6.00;;;;;20.20;94823.00;;;;7401121;19;20133;-81
2023/08/21 03:35:02;;;;;;;10.25;6.47;;;;;20.30;94830.00;;;;7396605;19;20141;-81
2023/08/21 03:37:35;;;;;;;7.90;5.80;;;;;20.30;94820.00;;;;7397008;19;20157;-81
2023/08/21 03:40:04;;;;;;;8.10;5.88;;;;;20.30;94820.00;;;;7399585;19;20168;-80
2023/08/21 03:42:38;;;;;;;7.45;6.25;;;;;20.40;94821.00;;;;7402059;19;20133;-81
2023/08/21 03:45:07;;;;;;;7.05;6.38;;;;;20.50;94817.00;;;;7401362;19;20141;-81
2023/08/21 03:47:41;;;;;;;10.80;6.35;;;;;20.60;94814.00;;;;7400300;19;20155;-81
2023/08/21 03:50:15;;;;;;;13.43;5.75;;;;;20.50;94821.00;;;;7399895;19;20628;-81
2023/08/21 03:52:49;;;;;;;10.05;5.95;;;;;20.40;94822.00;;;;7400952;19;20598;-80
2023/08/21 03:55:23;;;;;;;7.28;5.80;;;;;20.30;94826.00;;;;7399007;19;20133;-80
2023/08/21 03:57:51;;;;;;;7.55;6.18;;;;;20.40;94829.00;;;;7400129;19;20137;-80
2023/08/21 04:00:26;;;;;;;10.20;6.88;;;;;20.40;94830.00;;;;7399205;19;20163;-81
2023/08/21 04:03:07;;;;;;;8.30;6.55;;;;;20.40;94836.00;;;;7397326;19;20662;-81
2023/08/21 04:05:41;;;;;;;10.50;6.55;;;;;20.40;94832.00;;;;7401492;19;20137;-79
2023/08/21 04:08:15;;;;;;;8.05;6.38;;;;;20.40;94830.00;;;;7403592;19;20148;-78
2023/08/21 04:10:43;;;;;;;7.32;6.30;;;;;20.40;94838.00;;;;7402794;19;20813;-79
2023/08/21 04:13:11;;;;;;;7.40;6.05;;;;;20.40;94841.00;;;;7404087;19;20133;-78
2023/08/21 04:15:50;;;;;;;10.57;7.05;;;;;20.40;94837.00;;;;7402854;19;20137;-79
2023/08/21 04:18:17;;;;;;;7.60;6.35;;;;;20.50;94847.00;;;;7403006;19;20160;-78
2023/08/21 04:21:07;;;;;;;8.63;6.57;;;;;20.50;94840.00;;;;7402511;19;20487;-80
2023/08/21 04:23:41;;;;;;;9.15;6.68;;;;;20.50;94840.00;;;;7405914;19;20453;-81
2023/08/21 04:26:15;;;;;;;9.13;6.63;;;;;20.40;94842.00;;;;7402721;19;20603;-78
2023/08/21 04:28:45;;;;;;;8.93;6.30;;;;;20.30;94845.00;;;;7401189;19;20160;-78
2023/08/21 04:31:19;;;;;;;7.90;7.10;;;;;20.30;94837.00;;;;7401265;19;20472;-80
2023/08/21 04:33:53;;;;;;;9.30;6.32;;;;;20.50;94839.00;;;;7397135;19;20611;-79
2023/08/21 04:36:21;;;;;;;10.85;7.00;;;;;20.50;94841.00;;;;7393494;19;20174;-78
2023/08/21 04:38:55;;;;;;;10.68;6.97;;;;;20.50;94836.00;;;;7398265;19;20153;-76
2023/08/21 04:41:24;;;;;;;10.25;6.95;;;;;20.60;94832.00;;;;7396312;19;20148;-78
2023/08/21 04:44:00;;;;;;;10.85;7.10;;;;;20.50;94842.00;;;;7397453;19;20597;-78
2023/08/21 04:46:34;;;;;;;8.15;6.55;;;;;20.60;94839.00;;;;7398340;19;20133;-77
2023/08/21 04:49:08;;;;;;;10.32;6.70;;;;;20.50;94845.00;;;;7395723;19;20140;-79
2023/08/21 04:51:42;;;;;;;8.43;6.63;;;;;20.50;94844.00;;;;7395319;19;20690;-79
2023/08/21 04:54:10;;;;;;;10.30;7.07;;;;;20.60;94842.00;;;;7398036;19;20559;-76
2023/08/21 04:56:46;;;;;;;9.63;6.68;;;;;20.60;94845.00;;;;7394304;19;20157;-77
2023/08/21 04:59:14;;;;;;;8.57;6.63;;;;;20.60;94845.00;;;;7395923;19;20602;-76
2023/08/21 05:01:47;;;;;;;10.20;7.28;;;;;20.70;94849.00;;;;7394071;19;20136;-78
2023/08/21 05:04:22;;;;;;;7.97;6.15;;;;;20.70;94846.00;;;;7393574;19;20611;-77
2023/08/21 05:06:56;;;;;;;8.73;6.43;;;;;20.80;94849.00;;;;7398074;19;20136;-78
2023/08/21 05:09:25;;;;;;;9.07;6.88;;;;;20.90;94850.00;;;;7398020;19;20490;-77
2023/08/21 05:11:58;;;;;;;13.82;6.78;;;;;20.80;94845.00;;;;7395698;19;20452;-79
2023/08/21 05:14:26;;;;;;;8.00;6.32;;;;;21.00;94849.00;;;;7396339;19;20603;-77
2023/08/21 05:17:00;;;;;;;7.05;6.35;;;;;20.90;94850.00;;;;7395390;19;20165;-78
2023/08/21 05:19:34;;;;;;;7.10;6.38;;;;;21.00;94847.00;;;;7395031;19;20157;-77
2023/08/21 05:22:02;;;;;;;7.40;6.15;;;;;21.20;94846.00;;;;7395912;19;20137;-78
2023/08/21 05:24:37;;;;;;;15.02;7.18;;;;;21.30;94839.00;;;;7396509;19;20599;-78
2023/08/21 05:27:11;;;;;;;7.07;6.07;;;;;21.50;94848.00;;;;7395424;19;20170;-78
2023/08/21 05:29:45;;;;;;;8.95;6.68;;;;;21.70;94853.00;;;;7396222;19;20149;-78
2023/08/21 05:32:19;;;;;;;8.48;5.82;;;;;21.90;94850.00;;;;7395545;19;20158;-77
2023/08/21 05:34:47;;;;;;;16.17;6.85;;;;;21.90;94852.00;;;;7394872;19;20508;-75
2023/08/21 05:37:21;;;;;;;7.43;6.03;;;;;21.90;94851.00;;;;7394489;19;20243;-75
2023/08/21 05:39:49;;;;;;;11.52;6.68;;;;;22.10;94856.00;;;;7394934;19;20480;-75
2023/08/21 05:42:23;;;;;;;8.65;5.90;;;;;22.20;94861.00;;;;7393422;19;20161;-77
2023/08/21 05:44:58;;;;;;;9.90;6.50;;;;;22.30;94859.00;;;;7395228;19;20525;-74
2023/08/21 05:47:39;;;;;;;7.72;5.53;;;;;22.40;94853.00;;;;7395209;19;20204;-73
2023/08/21 05:50:14;;;;;;;9.75;6.25;;;;;22.60;94850.00;;;;7393495;19;20698;-74
2023/08/21 05:52:48;;;;;;;7.28;6.05;;;;;22.80;94854.00;;;;7393410;19;20148;-73
2023/08/21 05:55:17;;;;;;;9.02;6.28;;;;;23.00;94848.00;;;;7395759;19;20160;-73
2023/08/21 05:57:52;;;;;;;8.10;6.10;;;;;23.10;94859.00;;;;7392880;19;20144;-74
2023/08/21 06:00:25;;;;;;;9.93;6.20;;;;;23.30;94860.00;;;;7391227;19;20165;-75
2023/08/21 06:03:00;;;;;;;7.40;6.22;;;;;23.50;94856.00;;;;7393577;19;20614;-72
2023/08/21 06:05:34;;;;;;;6.07;5.57;;;;;23.60;94862.00;;;;7393889;19;20496;-73
2023/08/21 06:08:03;;;;;;;9.30;6.25;;;;;23.80;94865.00;;;;7394532;19;20166;-75
2023/08/21 06:10:36;;;;;;;7.38;6.07;;;;;23.90;94868.00;;;;7395747;19;20633;-73
2023/08/21 06:13:10;;;;;;;7.35;5.78;;;;;23.90;94859.00;;;;7394832;19;20520;-73
2023/08/21 06:15:45;;;;;;;8.40;6.20;;;;;24.10;94862.00;;;;7394922;19;20602;-73
2023/08/21 06:18:19;;;;;;;8.32;6.30;;;;;24.20;94863.00;;;;7392000;19;20493;-73
2023/08/21 06:20:55;;;;;;;6.85;5.63;;;;;24.40;94866.00;;;;7365144;19;20196;-75
2023/08/21 06:23:29;;;;;;;10.02;6.22;;;;;24.50;94859.00;;;;7369785;19;20254;-72
2023/08/21 06:26:10;;;;;;;6.38;5.75;;;;;24.70;94858.00;;;;7381010;19;20177;-75
2023/08/21 06:28:45;;;;;;;7.40;6.22;;;;;24.90;94855.00;;;;7383722;19;20576;-74
2023/08/21 06:31:18;;;;;;;8.18;5.25;;;;;24.90;94859.00;;;;7383320;19;20133;-76
2023/08/21 06:33:55;;;;;;;6.85;4.88;;;;;25.00;94857.00;;;;7380830;19;20176;-73
2023/08/21 06:36:22;;;;;;;5.43;4.93;;;;;25.10;94859.00;;;;7381647;19;20539;-75
2023/08/21 06:38:56;;;;;;;7.05;4.85;;;;;25.20;94859.00;;;;7382625;19;20144;-75
2023/08/21 06:41:25;;;;;;;8.45;5.32;;;;;25.30;94859.00;;;;7379892;19;20614;-73
2023/08/21 06:43:59;;;;;;;5.03;4.40;;;;;25.30;94859.00;;;;7381678;19;20610;-73
2023/08/21 06:46:27;;;;;;;6.80;4.60;;;;;25.40;94863.00;;;;7383035;19;20137;-73
2023/08/21 06:49:02;;;;;;;6.82;4.82;;;;;25.60;94858.00;;;;7380387;19;20143;-73
2023/08/21 06:51:29;;;;;;;6.97;5.00;;;;;25.70;94867.00;;;;7379653;19;20124;-72
2023/08/21 06:54:04;;;;;;;8.35;4.90;;;;;25.80;94867.00;;;;7383143;19;20136;-74
2023/08/21 06:56:37;;;;;;;5.85;4.60;;;;;25.80;94865.00;;;;7375114;19;20498;-76
2023/08/21 06:59:05;;;;;;;7.18;4.93;;;;;25.90;94870.00;;;;7379826;19;20148;-78
2023/08/21 07:01:39;;;;;;;7.78;5.20;;;;;26.00;94876.00;;;;7379668;19;20619;-78
2023/08/21 07:04:15;;;;;;;6.75;4.53;;;;;26.10;94870.00;;;;7381005;19;24399;-78
2023/08/21 07:06:50;;;;;;;8.93;5.07;;;;;26.30;94876.00;;;;7380747;19;20125;-77
2023/08/21 07:09:18;;;;;;;7.95;4.57;;;;;26.40;94876.00;;;;7379748;19;20464;-77
2023/08/21 07:11:45;;;;;;;5.20;4.68;;;;;26.50;94878.00;;;;7386399;19;20149;-76
2023/08/21 07:14:21;;;;;;;5.30;4.78;;;;;26.70;94877.00;;;;7386064;19;20679;-77
2023/08/21 07:16:48;;;;;;;7.40;4.40;;;;;26.70;94881.00;;;;7386764;19;20473;-77
2023/08/21 07:19:26;;;;;;;6.63;4.40;;;;;26.80;94872.00;;;;7388438;19;20145;-77
2023/08/21 07:22:00;;;;;;;5.47;4.57;;;;;27.00;94885.00;;;;7387589;19;20133;-78
2023/08/21 07:24:34;;;;;;;6.07;4.53;;;;;27.10;94876.00;;;;7384283;19;20144;-77
2023/08/21 07:27:02;;;;;;;6.95;4.47;;;;;27.20;94879.00;;;;7385817;19;20180;-78
2023/08/21 07:29:30;;;;;;;11.65;4.68;;;;;27.20;94880.00;;;;7385985;19;20230;-78
2023/08/21 07:32:05;;;;;;;7.47;4.72;;;;;27.40;94878.00;;;;7386420;19;20136;-77
2023/08/21 07:34:39;;;;;;;8.73;4.88;;;;;27.50;94889.00;;;;7386120;19;20623;-77
2023/08/21 07:37:12;;;;;;;10.13;4.60;;;;;27.50;94889.00;;;;7386061;19;20156;-77
2023/08/21 07:39:46;;;;;;;5.80;4.85;;;;;27.60;94892.00;;;;7385467;19;20149;-77
2023/08/21 07:42:20;;;;;;;8.45;4.78;;;;;27.50;94890.00;;;;7385252;19;20153;-76
2023/08/21 07:44:55;;;;;;;6.40;4.53;;;;;27.80;94883.00;;;;7385745;19;20212;-77
2023/08/21 07:47:22;;;;;;;5.30;4.57;;;;;27.90;94890.00;;;;7386094;19;20149;-77
2023/08/21 07:49:57;;;;;;;6.07;4.60;;;;;28.10;94890.00;;;;7385127;19;20159;-77
2023/08/21 07:52:32;;;;;;;7.53;4.60;;;;;28.30;94888.00;;;;7386858;19;21684;-77
2023/08/21 07:55:00;;;;;;;7.40;4.65;;;;;28.40;94895.00;;;;7383505;19;20152;-77
2023/08/21 07:57:34;;;;;;;5.47;4.78;;;;;28.20;94895.00;;;;7385457;19;20154;-79
2023/08/21 08:00:10;;;;;;;6.68;4.38;;;;;28.30;94889.00;;;;7384555;19;20237;-77
2023/08/21 08:02:57;;;;;;;5.32;4.18;;;;;28.40;94891.00;;;;7383675;19;20248;-76
2023/08/21 08:05:33;;;;;;;5.10;4.40;;;;;28.50;94891.00;;;;7389660;19;20128;-79
2023/08/21 08:08:07;;;;;;;8.52;4.28;;;;;28.60;94886.00;;;;7391246;19;20132;-81
2023/08/21 08:10:38;;;;;;;4.80;4.30;;;;;29.00;94896.00;;;;7389763;19;20160;-81
2023/08/21 08:13:14;;;;;;;6.32;4.95;;;;;29.30;94895.00;;;;7389684;19;20155;-81
2023/08/21 08:15:41;;;;;;;7.55;4.65;;;;;29.60;94906.00;;;;7391180;19;20148;-81
2023/08/21 08:18:15;;;;;;;5.45;4.35;;;;;29.50;94900.00;;;;7388722;19;20603;-76
2023/08/21 08:20:55;;;;;;;7.40;4.53;;;;;28.80;94906.00;;;;7391276;19;20137;-82
2023/08/21 08:23:29;;;;;;;6.78;4.05;;;;;28.70;94896.00;;;;7386450;19;20132;-75
2023/08/21 08:25:57;;;;;;;8.07;4.65;;;;;28.70;94894.00;;;;7387354;19;20136;-80
2023/08/21 08:28:31;;;;;;;5.43;4.10;;;;;28.60;94900.00;;;;7387392;19;20172;-78
2023/08/21 08:30:59;;;;;;;6.53;5.13;;;;;29.00;94907.00;;;;7387669;19;20476;-81
2023/08/21 08:33:33;;;;;;;6.30;5.00;;;;;29.00;94896.00;;;;7387841;19;20306;-77
2023/08/21 08:36:07;;;;;;;6.72;4.80;;;;;29.40;94905.00;;;;7386227;19;20612;-83
2023/08/21 08:38:43;;;;;;;6.10;4.40;;;;;29.60;94903.00;;;;7387628;19;20129;-78
2023/08/21 08:41:30;;;;;;;5.22;4.68;;;;;29.80;94897.00;;;;7389424;19;20159;-79
2023/08/21 08:44:05;;;;;;;7.38;4.57;;;;;29.70;94891.00;;;;7390641;19;20616;-80
2023/08/21 08:46:34;;;;;;;5.47;4.47;;;;;29.80;94902.00;;;;7388052;19;20144;-82
2023/08/21 08:49:08;;;;;;;10.10;4.90;;;;;29.80;94899.00;;;;7389755;19;20169;-82
2023/08/21 08:51:39;;;;;;;5.55;4.18;;;;;29.70;94902.00;;;;7389714;19;20192;-81
2023/08/21 08:54:13;;;;;;;7.45;4.78;;;;;29.90;94892.00;;;;7387295;19;20491;-80
2023/08/21 08:56:41;;;;;;;5.72;4.90;;;;;29.40;94896.00;;;;7387806;19;20675;-79
2023/08/21 08:59:09;;;;;;;11.23;4.97;;;;;29.30;94905.00;;;;7391516;19;20149;-83
2023/08/21 09:01:43;;;;;;;11.93;5.65;;;;;29.30;94894.00;;;;7390031;19;20650;-80
2023/08/21 09:04:12;;;;;;;5.30;4.43;;;;;29.00;94906.00;;;;7385763;19;20208;-78
2023/08/21 09:07:05;;;;;;;7.05;4.85;;;;;29.10;94899.00;;;;7388006;19;20619;-81
2023/08/21 09:09:40;;;;;;;9.75;5.65;;;;;29.80;94903.00;;;;7389265;19;20617;-79
2023/08/21 09:12:15;;;;;;;8.73;4.63;;;;;30.10;94899.00;;;;7386534;19;20199;-79
2023/08/21 09:14:44;;;;;;;13.30;4.93;;;;;30.30;94906.00;;;;7387306;19;20148;-79
2023/08/21 09:17:18;;;;;;;7.05;4.85;;;;;30.40;94898.00;;;;7383817;19;20514;-76
2023/08/21 09:19:53;;;;;;;7.55;4.63;;;;;30.50;94897.00;;;;7383940;19;21390;-77
2023/08/21 09:22:28;;;;;;;10.43;4.90;;;;;30.40;94900.00;;;;7382758;19;20163;-78
2023/08/21 09:25:06;;;;;;;8.20;5.10;;;;;30.30;94919.00;;;;7383515;19;20143;-78
2023/08/21 09:27:41;;;;;;;5.30;4.60;;;;;30.10;94908.00;;;;7378116;19;20132;-77
2023/08/21 09:30:14;;;;;;;10.05;5.20;;;;;30.20;94908.00;;;;7378729;19;20717;-78
2023/08/21 09:33:04;;;;;;;10.88;4.82;;;;;29.80;94916.00;;;;7383399;19;20136;-80
2023/08/21 09:35:33;;;;;;;5.10;4.60;;;;;29.50;94916.00;;;;7381668;19;20152;-76
2023/08/21 09:38:09;;;;;;;7.50;4.72;;;;;28.90;94918.00;;;;7384139;19;20135;-78
2023/08/21 09:40:54;;;;;;;5.57;5.07;;;;;28.70;94922.00;;;;7383135;19;20166;-78
2023/08/21 09:43:29;;;;;;;6.50;5.20;;;;;28.40;94923.00;;;;7384936;19;20131;-78
2023/08/21 09:46:04;;;;;;;9.57;5.20;;;;;27.80;94929.00;;;;7379002;19;20144;-79
2023/08/21 09:48:38;;;;;;;7.43;5.10;;;;;27.70;94918.00;;;;7382129;19;20156;-79
2023/08/21 09:51:08;;;;;;;5.93;4.50;;;;;28.00;94922.00;;;;7381540;19;20128;-77
2023/08/21 09:53:42;;;;;;;9.00;5.22;;;;;28.00;94912.00;;;;7380116;19;20616;-77
2023/08/21 09:56:20;;;;;;;6.68;4.53;;;;;27.70;94918.00;;;;7379699;19;20189;-76
2023/08/21 09:58:54;;;;;;;9.75;4.93;;;;;27.70;94908.00;;;;7381340;19;20231;-76
2023/08/21 10:01:28;;;;;;;6.38;5.13;;;;;27.60;94916.00;;;;7381963;19;20485;-75
2023/08/21 10:04:07;;;;;;;6.93;5.22;;;;;27.20;94913.00;;;;7378862;19;20210;-76
2023/08/21 10:06:49;;;;;;;8.38;4.90;;;;;27.80;94902.00;;;;7377575;19;20147;-76
2023/08/21 10:09:18;;;;;;;6.22;5.50;;;;;27.90;94908.00;;;;7377969;19;20224;-75
2023/08/21 10:11:53;;;;;;;9.55;5.30;;;;;27.80;94902.00;;;;7377506;19;20151;-76
2023/08/21 10:14:24;;;;;;;7.25;4.90;;;;;27.60;94902.00;;;;7376989;19;20132;-75
2023/08/21 10:16:58;;;;;;;10.40;5.32;;;;;28.20;94894.00;;;;7376198;19;20174;-76
2023/08/21 10:19:32;;;;;;;8.30;5.70;;;;;28.90;94884.00;;;;7378878;19;20125;-75
2023/08/21 10:22:07;;;;;;;7.00;4.85;;;;;29.70;94862.00;;;;7378075;19;20478;-77
2023/08/21 10:24:42;;;;;;;11.55;4.90;;;;;30.40;94864.00;;;;7380650;19;20144;-77
2023/08/21 10:27:30;;;;;;;9.50;5.40;;;;;31.00;94874.00;;;;7380181;19;20213;-76
2023/08/21 10:29:58;;;;;;;11.00;5.25;;;;;30.70;94876.00;;;;7381840;19;20156;-73
2023/08/21 10:32:32;;;;;;;7.45;5.40;;;;;30.10;94882.00;;;;7379481;19;20164;-73
2023/08/21 10:35:01;;;;;;;6.28;4.97;;;;;29.70;94885.00;;;;7378231;19;20469;-73
2023/08/21 10:37:55;;;;;;;10.00;5.15;;;;;29.20;94877.00;;;;7379604;19;20143;-73
2023/08/21 10:40:26;;;;;;;6.35;5.03;;;;;29.80;94853.00;;;;7378660;19;20152;-72
2023/08/21 10:43:04;;;;;;;6.60;5.25;;;;;31.30;94845.00;;;;7380614;19;20319;-76
2023/08/21 10:45:55;;;;;;;10.18;4.90;;;;;32.10;94838.00;;;;7381321;19;20140;-72
2023/08/21 10:48:29;;;;;;;8.38;5.15;;;;;33.10;94848.00;;;;7386496;19;20163;-74
2023/08/21 10:51:03;;;;;;;9.35;5.20;;;;;33.10;94838.00;;;;7387074;19;20675;-74
2023/08/21 10:53:38;;;;;;;10.10;4.85;;;;;33.40;94844.00;;;;7389224;19;20148;-73
2023/08/21 10:56:07;;;;;;;6.57;5.20;;;;;32.90;94858.00;;;;7387525;19;20161;-76
2023/08/21 10:58:51;;;;;;;7.00;5.20;;;;;31.90;94866.00;;;;7386502;19;20147;-73
2023/08/21 11:01:18;;;;;;;6.15;5.55;;;;;31.50;94871.00;;;;7386499;19;20691;-73
2023/08/21 11:03:58;;;;;;;11.43;5.68;;;;;30.90;94873.00;;;;6888338;19;9789970;-73
2023/08/21 11:06:40;;;;;;;8.73;5.47;;;;;30.60;94880.00;;;;7389985;19;20464;-73
2023/08/21 11:09:16;;;;;;;7.40;5.07;;;;;30.10;94869.00;;;;7388939;19;20604;-72
2023/08/21 11:11:50;;;;;;;6.28;5.20;;;;;29.80;94849.00;;;;7387528;19;20520;-73
2023/08/21 11:14:27;;;;;;;5.60;5.10;;;;;30.30;94879.00;;;;7391171;19;23297;-74
2023/08/21 11:17:01;;;;;;;10.13;5.68;;;;;30.40;94864.00;;;;7387941;19;20144;-73
2023/08/21 11:19:33;;;;;;;7.53;5.03;;;;;31.50;94853.00;;;;7389319;19;20167;-73
2023/08/21 11:22:08;;;;;;;9.07;5.18;;;;;32.70;94843.00;;;;7389583;19;20492;-74
2023/08/21 11:24:45;;;;;;;6.30;5.32;;;;;33.60;94847.00;;;;7388713;19;20240;-72
2023/08/21 11:27:18;;;;;;;6.03;5.43;;;;;34.20;94843.00;;;;7387415;19;20619;-72
2023/08/21 11:29:53;;;;;;;9.77;5.47;;;;;34.30;94860.00;;;;7387019;19;20152;-76
2023/08/21 11:32:22;;;;;;;8.57;5.10;;;;;34.30;94836.00;;;;7388459;19;20152;-75
2023/08/21 11:34:58;;;;;;;9.35;5.35;;;;;34.30;94848.00;;;;7387875;19;20176;-74
2023/08/21 11:37:32;;;;;;;9.10;5.15;;;;;33.80;94848.00;;;;7385339;19;20211;-77
2023/08/21 11:40:06;;;;;;;5.90;5.20;;;;;34.10;94865.00;;;;7386948;19;20604;-76
2023/08/21 11:42:41;;;;;;;8.95;5.70;;;;;32.80;94873.00;;;;7387231;19;20495;-77
2023/08/21 11:45:10;;;;;;;10.73;5.13;;;;;32.20;94867.00;;;;7385077;19;20173;-77
2023/08/21 11:47:45;;;;;;;6.32;5.72;;;;;32.00;94874.00;;;;7385391;19;20155;-75
2023/08/21 11:50:18;;;;;;;9.35;5.10;;;;;31.50;94869.00;;;;7386432;19;20496;-77
2023/08/21 11:52:56;;;;;;;7.13;5.63;;;;;31.40;94873.00;;;;7387181;19;20133;-77
2023/08/21 11:55:31;;;;;;;9.30;5.50;;;;;31.50;94873.00;;;;7382495;19;20502;-76
2023/08/21 11:58:06;;;;;;;7.00;5.05;;;;;31.60;94851.00;;;;7385133;19;20145;-76
2023/08/21 12:00:40;;;;;;;8.07;5.35;;;;;32.30;94870.00;;;;7384312;19;20508;-76
2023/08/21 12:03:09;;;;;;;7.93;5.20;;;;;32.70;94867.00;;;;7383245;19;20179;-77
2023/08/21 12:05:51;;;;;;;14.30;5.85;;;;;32.30;94866.00;;;;7385278;19;20503;-77
2023/08/21 12:08:26;;;;;;;6.75;5.18;;;;;32.20;94845.00;;;;7387368;19;20140;-77
2023/08/21 12:11:00;;;;;;;7.28;4.93;;;;;32.80;94837.00;;;;7385611;19;20607;-77
2023/08/21 12:13:29;;;;;;;6.68;5.50;;;;;33.40;94862.00;;;;7384510;19;20590;-78
2023/08/21 12:16:04;;;;;;;9.75;5.25;;;;;32.60;94857.00;;;;7383683;19;20144;-76
2023/08/21 12:18:38;;;;;;;7.82;5.57;;;;;32.10;94859.00;;;;7380310;19;20209;-75
2023/08/21 12:21:12;;;;;;;6.93;5.03;;;;;31.10;94856.00;;;;7385012;19;20852;-76
2023/08/21 12:23:40;;;;;;;10.70;5.50;;;;;30.90;94852.00;;;;7383865;19;20152;-76
2023/08/21 12:26:20;;;;;;;6.57;5.30;;;;;32.00;94838.00;;;;7383283;19;20143;-76
2023/08/21 12:28:49;;;;;;;8.20;5.10;;;;;34.00;94831.00;;;;7385021;19;20152;-76
2023/08/21 12:31:23;;;;;;;12.25;5.68;;;;;35.20;94832.00;;;;7383909;19;20139;-77
2023/08/21 12:33:51;;;;;;;7.80;5.20;;;;;35.90;94818.00;;;;7383800;19;20148;-76
2023/08/21 12:36:25;;;;;;;12.00;5.63;;;;;35.80;94849.00;;;;7386742;19;20128;-77
2023/08/21 12:38:59;;;;;;;9.68;5.45;;;;;34.10;94830.00;;;;7382472;19;20623;-76
2023/08/21 12:41:34;;;;;;;7.45;5.15;;;;;34.00;94832.00;;;;7382458;19;20156;-77
2023/08/21 12:44:03;;;;;;;6.65;5.22;;;;;34.30;94829.00;;;;7382345;19;20638;-77
2023/08/21 12:46:37;;;;;;;7.95;5.18;;;;;33.70;94822.00;;;;7384486;19;20171;-77